Terminal Aerodrome Forecast
Issued by NWS Denver/Boulder, CO

Home | Current Version | Previous Version | Text Only | Print | Product List | Glossary On
Versions: 1 2 3 4 5 6 7 8 9 10 11 12 13 14 15 16 17 18 19 20 21 22 23 24 25 26 27 28 29 30 31 32 33 34 35 36 37 38 39 40 41 42 43 44
000
FTUS45 KBOU 221104 AAC
TAFDEN
TAF AMD
KDEN 221104Z 2211/2312 12007KT P6SM -RA OVC020
      TEMPO 2211/2214 6SM -RASN BKN015
     FM221400 15007KT P6SM -SHRA SCT009 OVC020
      TEMPO 2214/2216 6SM -SHRASN BR BKN009
     FM221700 VRB05KT P6SM SCT020 BKN035
     FM222200 10007KT P6SM SCT050 SCT110
     FM230100 15006KT P6SM FEW050 SCT120
     FM230300 13006KT P6SM SCT150
     FM230500 20011KT P6SM SKC=

USA.gov is the U.S. government's official web portal to all federal, state and local government web resources and services.